Orbital elements of BREEZE-M DEB
| Launched | 8 June 2016 |
| Flight ended | – |
| Launch site | Tyuratam Missile and Space Center, Kazakhstan (Also known as Baikonur Cosmodrome) |
| Owner | Commonwealth of Independent States (former USSR) |
| NORAD ID | 41583 |
| Alternative names |
TANK |
| Date fetched |
Epoch osculation |
Inc. [°] |
Ecc. | RA asc node [hr] |
Arg Peri. [°] |
Mean anom [°] |
Mean motion [rev/day] |
Abs. mag |
| Date fetched |
Epoch osculation |
Inc. [°] |
Ecc. | RA asc node [hr] |
Arg Peri. [°] |
Mean anom [°] |
Mean motion [rev/day] |
Abs. mag |
| 2026 May 01 17:56 | 2026 Apr 30 02:49:38 | 50.8101 | 0.49784 | 22.1980 | 319.7415 | 12.4043 | 5.56527 | – |
| 2026 Apr 30 17:56 | 2026 Apr 30 02:49:38 | 50.8101 | 0.49784 | 22.1980 | 319.7415 | 12.4043 | 5.56527 | – |
| 2026 Apr 29 17:57 | 2026 Apr 24 13:09:18 | 50.8123 | 0.49788 | 22.5014 | 316.1445 | 12.4043 | 5.56527 | – |
| 2026 Apr 28 17:56 | 2026 Apr 24 13:09:18 | 50.8123 | 0.49788 | 22.5014 | 316.1445 | 12.4043 | 5.56527 | – |
| 2026 Apr 27 17:58 | 2026 Apr 24 13:09:18 | 50.8123 | 0.49788 | 22.5014 | 316.1445 | 12.4043 | 5.56527 | – |
| 2026 Apr 26 17:58 | 2026 Apr 24 13:09:18 | 50.8123 | 0.49788 | 22.5014 | 316.1445 | 12.4043 | 5.56527 | – |
| 2026 Apr 25 17:58 | 2026 Apr 24 13:09:18 | 50.8123 | 0.49788 | 22.5014 | 316.1445 | 12.4043 | 5.56527 | – |
| 2026 Apr 24 17:59 | 2026 Apr 24 13:09:18 | 50.8123 | 0.49788 | 22.5014 | 316.1445 | 12.4043 | 5.56527 | – |
| 2026 Apr 23 17:57 | 2026 Apr 18 14:51:29 | 50.8104 | 0.49791 | 22.8243 | 312.3180 | 12.4043 | 5.56527 | – |
| 2026 Apr 22 17:57 | 2026 Apr 18 14:51:29 | 50.8104 | 0.49791 | 22.8243 | 312.3180 | 12.4043 | 5.56527 | – |
| 2026 Apr 21 17:57 | 2026 Apr 18 14:51:29 | 50.8104 | 0.49791 | 22.8243 | 312.3180 | 12.4043 | 5.56527 | – |
| 2026 Apr 20 17:57 | 2026 Apr 18 14:51:29 | 50.8104 | 0.49791 | 22.8243 | 312.3180 | 12.4043 | 5.56527 | – |
| 2026 Apr 19 17:58 | 2026 Apr 18 14:51:29 | 50.8104 | 0.49791 | 22.8243 | 312.3180 | 12.4043 | 5.56527 | – |
| 2026 Apr 18 17:56 | 2026 Apr 12 16:33:38 | 50.8098 | 0.49794 | 23.1473 | 308.4925 | 12.4043 | 5.56527 | – |
| 2026 Apr 16 17:57 | 2026 Apr 12 16:33:38 | 50.8098 | 0.49794 | 23.1473 | 308.4925 | 12.4043 | 5.56527 | – |
| 2026 Apr 14 17:57 | 2026 Apr 12 16:33:38 | 50.8098 | 0.49794 | 23.1473 | 308.4925 | 12.4043 | 5.56527 | – |
| 2026 Apr 13 17:57 | 2026 Apr 12 16:33:38 | 50.8098 | 0.49794 | 23.1473 | 308.4925 | 12.4043 | 5.56527 | – |
| 2026 Apr 12 17:57 | 2026 Apr 08 00:26:49 | 50.8094 | 0.49797 | 23.4018 | 305.4808 | 12.4043 | 5.56527 | – |
| 2026 Apr 11 17:57 | 2026 Apr 08 00:26:49 | 50.8094 | 0.49797 | 23.4018 | 305.4808 | 12.4043 | 5.56527 | – |
| 2026 Apr 10 17:58 | 2026 Apr 08 00:26:49 | 50.8094 | 0.49797 | 23.4018 | 305.4808 | 12.4043 | 5.56527 | – |
| 2026 Apr 09 18:01 | 2026 Apr 08 00:26:49 | 50.8094 | 0.49797 | 23.4018 | 305.4808 | 12.4043 | 5.56527 | – |
| 2026 Apr 08 17:57 | 2026 Apr 08 00:26:49 | 50.8094 | 0.49797 | 23.4018 | 305.4808 | 12.4043 | 5.56527 | – |
| 2026 Apr 07 17:57 | 2026 Apr 01 00:16:31 | 50.8099 | 0.49801 | 23.7836 | 300.9624 | 12.4043 | 5.56527 | – |
| 2026 Apr 06 17:57 | 2026 Apr 01 00:16:31 | 50.8099 | 0.49801 | 23.7836 | 300.9624 | 12.4043 | 5.56527 | – |
| 2026 Apr 05 17:56 | 2026 Apr 01 00:16:31 | 50.8099 | 0.49801 | 23.7836 | 300.9624 | 12.4043 | 5.56527 | – |
| 2026 Apr 04 17:57 | 2026 Apr 01 00:16:31 | 50.8099 | 0.49801 | 23.7836 | 300.9624 | 12.4043 | 5.56527 | – |